Time;durP1;ratioP1;P1;durP2;ratioP2;P2;SDS_P1;SDS_P2;PMS_P1;PMS_P2;Temp;Humidity;BMP_temperature;BMP_pressure;BME280_temperature;BME280_humidity;BME280_pressure;Samples;Min_cycle;Max_cycle;Signal;HPM_P1;HPM_P2
2022/03/16 00:00:10;;;;;;;;;14.00;10.25;;;;;19.34;41.76;101546.28;5075080;28;45402;-51
2022/03/16 00:02:35;;;;;;;;;9.25;9.25;;;;;19.33;42.15;101545.44;5075423;28;45483;-57
2022/03/16 00:05:01;;;;;;;;;8.25;7.75;;;;;19.33;42.09;101540.19;5072690;28;45224;-54
2022/03/16 00:07:26;;;;;;;;;10.25;7.25;;;;;19.32;41.65;101543.72;5075159;27;45336;-55
2022/03/16 00:09:52;;;;;;;;;9.75;8.50;;;;;19.32;41.84;101541.09;5073808;28;45439;-53
2022/03/16 00:12:18;;;;;;;;;10.00;8.00;;;;;19.31;42.18;101540.22;5074204;28;45607;-51
2022/03/16 00:14:44;;;;;;;;;11.25;11.25;;;;;19.31;42.17;101542.84;5031435;27;1191725;-54
2022/03/16 00:17:09;;;;;;;;;11.50;9.75;;;;;19.29;41.91;101531.53;5076277;28;45252;-46
2022/03/16 00:19:35;;;;;;;;;12.50;9.25;;;;;19.31;42.15;101540.22;5076393;27;45228;-53
2022/03/16 00:22:03;;;;;;;;;9.75;9.25;;;;;19.29;41.85;101538.56;5076675;28;45870;-53
2022/03/16 00:24:29;;;;;;;;;10.00;8.50;;;;;19.31;42.00;101539.38;5075990;28;46916;-55
2022/03/16 00:26:55;;;;;;;;;11.50;9.00;;;;;19.31;41.71;101539.38;5076130;27;45477;-53
2022/03/16 00:29:20;;;;;;;;;9.50;9.00;;;;;19.31;42.10;101536.75;5076610;28;45365;-55
2022/03/16 00:31:46;;;;;;;;;8.50;6.25;;;;;19.30;41.78;101537.66;5076511;28;45232;-54
2022/03/16 00:34:12;;;;;;;;;6.75;6.00;;;;;19.30;41.87;101537.66;5076071;28;45427;-58
2022/03/16 00:36:37;;;;;;;;;11.50;8.25;;;;;19.29;41.90;101542.06;5075958;28;45303;-55
2022/03/16 00:39:03;;;;;;;;;11.75;8.00;;;;;19.30;42.01;101538.50;5074896;28;45311;-57
2022/03/16 00:41:29;;;;;;;;;10.25;8.00;;;;;19.30;41.94;101537.66;5076323;28;45405;-49
2022/03/16 00:43:54;;;;;;;;;9.00;8.00;;;;;19.30;41.74;101537.66;5074530;28;47425;-57
2022/03/16 00:46:20;;;;;;;;;6.00;6.00;;;;;19.30;41.84;101537.66;5076324;28;45372;-55
2022/03/16 00:48:45;;;;;;;;;8.75;8.75;;;;;19.30;41.87;101532.41;5076179;28;45710;-54
2022/03/16 00:51:12;;;;;;;;;9.50;8.00;;;;;19.29;42.09;101534.16;5076204;28;45443;-56
2022/03/16 00:53:39;;;;;;;;;6.50;6.50;;;;;19.28;41.91;101527.22;5075874;28;47333;-51
2022/03/16 00:56:06;;;;;;;;;9.00;8.00;;;;;19.29;42.16;101521.03;5075697;27;45983;-53
2022/03/16 00:58:31;;;;;;;;;5.50;5.50;;;;;19.29;41.57;101517.56;5075843;27;45362;-54
2022/03/16 01:00:58;;;;;;;;;8.00;7.25;;;;;19.28;42.10;101519.34;5076189;28;45550;-51
2022/03/16 01:03:24;;;;;;;;;10.00;8.25;;;;;19.26;41.58;101504.53;5074372;28;47187;-48
2022/03/16 01:05:49;;;;;;;;;8.00;7.75;;;;;19.26;41.49;101505.41;5076080;28;45211;-43
2022/03/16 01:08:15;;;;;;;;;8.00;7.75;;;;;19.28;41.97;101515.84;5075842;28;45322;-52
2022/03/16 01:10:40;;;;;;;;;8.75;7.75;;;;;19.27;41.83;101507.13;5076034;28;45614;-47
2022/03/16 01:13:06;;;;;;;;;8.50;6.50;;;;;19.27;41.85;101511.50;5075677;27;45402;-48
2022/03/16 01:15:32;;;;;;;;;5.75;5.75;;;;;19.28;42.11;101505.31;5076331;27;45765;-45
2022/03/16 01:17:57;;;;;;;;;8.50;7.25;;;;;19.28;41.90;101497.44;5079136;27;45429;-44
2022/03/16 01:20:23;;;;;;;;;7.25;7.00;;;;;19.26;41.82;101494.88;5079454;27;45498;-44
2022/03/16 01:22:49;;;;;;;;;7.50;7.50;;;;;19.27;41.97;101495.72;5078877;28;47059;-49
2022/03/16 01:25:14;;;;;;;;;8.50;8.50;;;;;19.26;42.07;101486.13;5078859;28;45421;-51
2022/03/16 01:27:40;;;;;;;;;8.75;8.75;;;;;19.27;42.04;101490.47;5078978;28;45374;-50
2022/03/16 01:30:07;;;;;;;;;8.00;6.75;;;;;19.25;42.13;101487.03;5079165;27;45599;-50
2022/03/16 01:32:33;;;;;;;;;9.25;7.00;;;;;19.26;42.13;101478.25;5078685;27;46183;-56
2022/03/16 01:34:58;;;;;;;;;5.00;5.00;;;;;19.26;41.58;101483.50;5078765;28;45871;-56
2022/03/16 01:37:24;;;;;;;;;5.25;5.25;;;;;19.25;42.10;101480.03;5079174;27;45422;-44
2022/03/16 01:39:49;;;;;;;;;8.00;6.75;;;;;19.25;41.88;101471.28;5079015;27;45231;-48
2022/03/16 01:42:14;;;;;;;;;3.75;3.75;;;;;19.25;41.71;101472.16;5078700;27;46651;-50
2022/03/16 01:44:47;;;;;;;;;5.50;5.50;;;;;19.26;42.05;101481.75;5078568;27;45267;-49
2022/03/16 01:47:15;;;;;;;;;6.00;6.00;;;;;19.25;41.94;101472.16;5077485;27;45389;-49
2022/03/16 01:49:40;;;;;;;;;8.50;6.50;;;;;19.25;41.83;101466.00;5078935;27;45368;-53
2022/03/16 01:52:08;;;;;;;;;7.00;6.25;;;;;19.26;42.21;101470.34;5078305;28;45508;-47
2022/03/16 01:54:34;;;;;;;;;8.50;5.75;;;;;19.24;42.05;101470.44;5077265;28;45869;-47
2022/03/16 01:57:00;;;;;;;;;5.00;4.50;;;;;19.26;41.85;101483.50;5078432;27;45358;-44
2022/03/16 01:59:25;;;;;;;;;5.50;5.25;;;;;19.24;42.21;101475.69;5079122;28;45417;-47
2022/03/16 02:01:50;;;;;;;;;4.50;4.25;;;;;19.23;41.79;101473.13;5078236;27;46084;-43
2022/03/16 02:04:16;;;;;;;;;6.50;6.25;;;;;19.23;41.78;101478.38;5078391;27;45359;-48
2022/03/16 02:06:41;;;;;;;;;7.25;6.25;;;;;19.23;41.80;101476.59;5078378;27;45320;-44
2022/03/16 02:09:07;;;;;;;;;6.75;5.25;;;;;19.23;42.04;101479.22;5078522;28;45359;-48
2022/03/16 02:11:32;;;;;;;;;6.00;6.00;;;;;19.25;42.21;101477.41;5077964;28;45326;-42
2022/03/16 02:13:57;;;;;;;;;11.25;6.00;;;;;19.24;41.98;101475.69;5076790;28;45351;-42
2022/03/16 02:16:23;;;;;;;;;5.00;5.00;;;;;19.24;41.93;101483.56;5078121;28;45228;-44
2022/03/16 02:18:49;;;;;;;;;7.00;5.75;;;;;19.23;41.68;101478.38;5078441;27;45644;-45
2022/03/16 02:21:16;;;;;;;;;4.50;3.25;;;;;19.23;42.23;101475.75;5077941;28;47217;-49
2022/03/16 02:23:42;;;;;;;;;6.00;4.25;;;;;19.23;42.12;101467.88;5076693;28;45351;-49
2022/03/16 02:26:10;;;;;;;;;6.00;6.00;;;;;19.22;42.14;101471.41;5078239;27;45440;-52
2022/03/16 02:28:36;;;;;;;;;4.25;4.25;;;;;19.22;42.22;101471.41;5077243;28;45570;-49
2022/03/16 02:31:01;;;;;;;;;5.00;5.00;;;;;19.22;41.73;101471.41;5077718;28;45620;-51
2022/03/16 02:33:27;;;;;;;;;6.75;6.00;;;;;19.22;41.96;101463.53;5077973;27;45424;-50
2022/03/16 02:35:52;;;;;;;;;5.00;5.00;;;;;19.22;41.89;101460.91;5078014;28;45290;-51
2022/03/16 02:38:19;;;;;;;;;5.75;5.00;;;;;19.22;41.75;101460.91;5078253;28;45978;-53
2022/03/16 02:40:44;;;;;;;;;6.50;5.75;;;;;19.21;41.78;101453.94;5077793;27;47130;-57
2022/03/16 02:43:09;;;;;;;;;6.50;5.75;;;;;19.20;42.09;101453.06;5077720;28;45489;-56
2022/03/16 02:45:35;;;;;;;;;5.50;5.50;;;;;19.21;41.97;101449.53;5077902;28;45315;-55
2022/03/16 02:48:00;;;;;;;;;4.00;4.00;;;;;19.21;41.74;101448.69;5077918;28;45501;-53
2022/03/16 02:50:26;;;;;;;;;4.50;4.50;;;;;19.20;41.75;101457.47;5077863;28;46239;-53
2022/03/16 02:52:52;;;;;;;;;4.25;4.25;;;;;19.20;42.06;101446.97;5059518;28;46183;-50
2022/03/16 02:55:17;;;;;;;;;4.25;4.25;;;;;19.20;42.00;101453.06;5077882;28;45396;-47
2022/03/16 02:57:43;;;;;;;;;4.25;4.25;;;;;19.21;42.16;101443.44;5077704;28;45327;-43
2022/03/16 03:00:09;;;;;;;;;4.25;4.25;;;;;19.19;42.11;101443.47;5077397;28;46454;-49
2022/03/16 03:02:35;;;;;;;;;3.25;3.25;;;;;19.21;41.95;101453.94;5077348;27;45354;-45
2022/03/16 03:05:01;;;;;;;;;4.00;4.00;;;;;19.21;41.66;101453.94;5076361;28;45275;-44
2022/03/16 03:07:26;;;;;;;;;3.00;3.00;;;;;19.20;42.01;101453.06;5078096;27;45342;-55
2022/03/16 03:09:52;;;;;;;;;4.75;4.75;;;;;19.19;42.05;101451.34;5077375;28;46103;-55
2022/03/16 03:12:18;;;;;;;;;3.00;3.00;;;;;19.20;41.82;101452.22;5077258;27;45169;-49
2022/03/16 03:14:43;;;;;;;;;7.25;4.00;;;;;19.19;41.84;101445.25;5077121;27;45247;-52
2022/03/16 03:17:09;;;;;;;;;8.50;5.50;;;;;19.19;42.02;101450.50;5077474;28;45796;-53
2022/03/16 03:19:34;;;;;;;;;6.25;6.25;;;;;19.20;42.07;101457.47;5077149;28;46082;-50
2022/03/16 03:22:00;;;;;;;;;5.25;3.00;;;;;19.20;42.25;101452.22;5077434;27;45386;-46
2022/03/16 03:24:25;;;;;;;;;3.00;3.00;;;;;19.20;42.31;101452.22;5077655;28;45613;-44
2022/03/16 03:26:51;;;;;;;;;4.75;4.75;;;;;19.19;41.97;101455.75;5077386;27;45512;-43
2022/03/16 03:29:17;;;;;;;;;5.25;5.25;;;;;19.20;42.21;101452.22;5076803;27;45493;-56
2022/03/16 03:31:43;;;;;;;;;3.25;3.25;;;;;19.19;42.12;101437.38;5076743;27;45960;-48
2022/03/16 03:34:09;;;;;;;;;5.25;4.75;;;;;19.20;42.18;101446.97;5077054;27;45475;-51
2022/03/16 03:36:34;;;;;;;;;4.75;4.25;;;;;19.20;41.60;101446.97;5077171;27;45377;-54
2022/03/16 03:38:59;;;;;;;;;4.00;4.00;;;;;19.18;41.94;101449.66;5076786;28;45429;-54
2022/03/16 03:41:25;;;;;;;;;4.50;4.25;;;;;19.19;42.23;101455.75;5076742;28;45314;-57
2022/03/16 03:43:50;;;;;;;;;6.75;4.75;;;;;19.18;41.89;101454.91;5075600;27;45319;-55
2022/03/16 03:46:16;;;;;;;;;5.50;3.50;;;;;19.19;42.11;101445.25;5077024;27;45434;-52
2022/03/16 03:48:41;;;;;;;;;4.00;4.00;;;;;19.19;42.09;101455.75;5076643;28;45417;-58
2022/03/16 03:51:07;;;;;;;;;5.00;4.00;;;;;19.18;41.63;101454.91;5076619;28;45275;-57
2022/03/16 03:53:33;;;;;;;;;3.00;3.00;;;;;19.19;41.89;101461.03;5076898;28;45290;-56
2022/03/16 03:55:58;;;;;;;;;5.00;3.25;;;;;19.19;41.95;101450.50;5077156;28;45541;-56
2022/03/16 03:58:24;;;;;;;;;5.25;5.00;;;;;19.19;41.85;101455.75;5076528;27;46213;-50
2022/03/16 04:00:49;;;;;;;;;4.50;3.75;;;;;19.18;41.94;101454.06;5075224;28;45300;-50
2022/03/16 04:03:16;;;;;;;;;4.75;3.25;;;;;19.18;42.22;101448.78;5076769;27;45420;-52
2022/03/16 04:05:41;;;;;;;;;2.00;1.00;;;;;19.16;41.86;101449.72;5076681;27;45496;-52
2022/03/16 04:08:07;;;;;;;;;3.75;3.75;;;;;19.18;42.19;101452.28;5075045;28;46562;-53
2022/03/16 04:10:32;;;;;;;;;4.00;4.00;;;;;19.18;42.09;101443.53;5076680;28;45409;-53
2022/03/16 04:12:58;;;;;;;;;6.50;5.50;;;;;19.15;41.83;101426.97;5076582;28;45354;-50
2022/03/16 04:15:23;;;;;;;;;3.75;3.00;;;;;19.18;41.91;101433.03;5076436;28;45440;-55
2022/03/16 04:17:48;;;;;;;;;4.75;4.00;;;;;19.16;41.81;101433.94;5076302;27;46467;-56
2022/03/16 04:20:14;;;;;;;;;5.00;3.75;;;;;19.16;41.82;101423.44;5075957;28;51842;-55
2022/03/16 04:22:39;;;;;;;;;3.00;3.00;;;;;19.18;42.15;101419.88;5076423;28;45444;-51
2022/03/16 04:25:06;;;;;;;;;6.50;4.25;;;;;19.18;42.05;101425.16;5075330;28;45527;-55
2022/03/16 04:27:31;;;;;;;;;4.50;3.50;;;;;19.18;42.01;101417.25;5076438;28;45446;-55
2022/03/16 04:29:57;;;;;;;;;5.25;4.75;;;;;19.17;41.76;101411.16;5076155;27;45193;-53
2022/03/16 04:32:23;;;;;;;;;5.75;3.75;;;;;19.17;41.88;101411.16;5076254;28;45299;-52
2022/03/16 04:34:48;;;;;;;;;4.00;4.00;;;;;19.16;41.88;101419.97;5076513;28;45595;-54
2022/03/16 04:37:13;;;;;;;;;5.75;4.50;;;;;19.16;42.18;101415.53;5076068;28;46151;-49
2022/03/16 04:39:39;;;;;;;;;4.25;3.00;;;;;19.16;41.97;101409.44;5075068;28;45383;-50
2022/03/16 04:42:05;;;;;;;;;3.25;3.25;;;;;19.16;41.97;101415.53;5074840;28;45318;-53
2022/03/16 04:44:30;;;;;;;;;5.50;4.00;;;;;19.14;41.75;101406.88;5076639;28;45572;-52
2022/03/16 04:46:55;;;;;;;;;6.25;5.00;;;;;19.14;42.14;101406.88;5076010;28;45538;-55
2022/03/16 04:49:21;;;;;;;;;3.50;3.50;;;;;19.16;41.99;101404.19;5075895;28;45315;-55
2022/03/16 04:51:46;;;;;;;;;3.25;3.25;;;;;19.15;42.24;101403.31;5078554;28;45276;-54
2022/03/16 04:54:11;;;;;;;;;3.50;2.00;;;;;19.15;42.23;101399.84;5079797;28;45351;-57
2022/03/16 04:56:37;;;;;;;;;3.75;3.75;;;;;19.15;41.93;101411.22;5079107;28;46110;-54
2022/03/16 04:59:03;;;;;;;;;3.50;3.50;;;;;19.15;42.07;101413.84;5079720;28;45356;-55
2022/03/16 05:01:29;;;;;;;;;4.00;3.75;;;;;19.14;42.20;101417.38;5079340;28;45432;-49
2022/03/16 05:03:54;;;;;;;;;8.25;6.00;;;;;19.13;41.91;101415.66;5079441;27;45554;-53
2022/03/16 05:06:20;;;;;;;;;8.25;8.25;;;;;19.10;41.94;101418.44;5079367;28;46184;-47
2022/03/16 05:08:47;;;;;;;;;7.50;7.50;;;;;19.05;42.39;101417.75;5079308;27;45555;-52
2022/03/16 05:11:16;;;;;;;;;12.00;8.00;;;;;19.03;42.63;101411.69;5079188;28;45383;-51
2022/03/16 05:13:42;;;;;;;;;2.50;2.25;;;;;18.98;42.28;101401.38;5078201;28;45553;-48
2022/03/16 05:16:08;;;;;;;;;7.25;5.25;;;;;18.98;42.61;101408.41;5094425;27;47360;-50
2022/03/16 05:18:34;;;;;;;;;8.25;8.25;;;;;18.96;42.52;101399.72;5079369;28;45355;-44
2022/03/16 05:21:03;;;;;;;;;7.75;7.00;;;;;18.93;42.56;101394.56;5079283;27;45314;-53
2022/03/16 05:23:28;;;;;;;;;10.50;8.00;;;;;18.91;42.74;101397.25;5079324;27;45331;-53
2022/03/16 05:25:54;;;;;;;;;7.25;7.25;;;;;18.90;42.75;101402.59;5078643;27;46104;-52
2022/03/16 05:28:19;;;;;;;;;6.75;5.00;;;;;18.86;42.64;101409.69;5078968;28;45220;-54
2022/03/16 05:30:45;;;;;;;;;11.50;11.25;;;;;18.87;42.92;101418.44;5079011;27;45353;-49
2022/03/16 05:33:10;;;;;;;;;20.25;18.00;;;;;18.84;42.93;101412.41;5079193;27;45388;-46
2022/03/16 05:35:35;;;;;;;;;17.50;14.50;;;;;18.83;43.52;101423.81;5078790;28;45344;-55
2022/03/16 05:38:05;;;;;;;;;14.50;11.25;;;;;18.83;42.54;101425.59;5077416;28;45355;-57
2022/03/16 05:40:30;;;;;;;;;14.25;12.75;;;;;18.81;43.13;101425.63;5077584;27;45465;-57
2022/03/16 05:42:56;;;;;;;;;13.00;12.25;;;;;18.79;43.07;101427.50;5079160;28;45501;-55
2022/03/16 05:45:22;;;;;;;;;17.00;14.25;;;;;18.76;43.27;101432.84;5078787;27;45239;-56
2022/03/16 05:47:47;;;;;;;;;14.25;13.00;;;;;18.73;43.15;101426.88;5078643;27;45913;-51
2022/03/16 05:50:13;;;;;;;;;16.25;14.75;;;;;18.71;43.31;101440.03;5078791;28;45390;-57
2022/03/16 05:52:40;;;;;;;;;16.50;13.00;;;;;18.65;43.44;101429.78;5077522;27;45514;-46
2022/03/16 05:55:07;;;;;;;;;13.50;13.25;;;;;18.62;43.63;101424.63;5078785;27;46613;-58
2022/03/16 05:57:36;;;;;;;;;16.50;13.25;;;;;18.61;43.63;101425.53;5078351;28;45395;-54
2022/03/16 06:00:02;;;;;;;;;12.00;11.25;;;;;18.57;43.54;101431.84;5078616;27;45242;-51
2022/03/16 06:02:27;;;;;;;;;12.50;11.25;;;;;18.56;43.68;101430.97;5078746;27;45493;-52
2022/03/16 06:04:52;;;;;;;;;10.50;9.50;;;;;18.54;43.62;101431.03;5078310;28;46134;-48
2022/03/16 06:07:18;;;;;;;;;17.00;14.67;;;;;18.52;43.82;101425.00;5078085;27;47868;-50
2022/03/16 06:09:44;;;;;;;;;13.50;11.75;;;;;18.53;43.68;101428.47;5078532;28;45295;-48
2022/03/16 06:12:10;;;;;;;;;9.00;8.25;;;;;18.51;43.82;101431.16;5078582;28;45360;-45
2022/03/16 06:14:36;;;;;;;;;10.25;9.00;;;;;18.51;44.10;101433.78;5078254;27;45220;-53
2022/03/16 06:17:01;;;;;;;;;13.75;12.75;;;;;18.50;43.88;101437.31;5077993;28;45416;-47
2022/03/16 06:19:27;;;;;;;;;11.25;10.75;;;;;18.51;43.73;101443.44;5078034;28;45399;-53
2022/03/16 06:21:52;;;;;;;;;8.50;8.50;;;;;18.50;43.94;101426.81;5078301;28;45493;-55
2022/03/16 06:24:17;;;;;;;;;13.50;11.00;;;;;18.51;43.77;101428.53;5077713;27;51168;-53
2022/03/16 06:26:43;;;;;;;;;11.75;10.50;;;;;18.51;43.98;101425.06;5078023;28;45377;-47
2022/03/16 06:29:08;;;;;;;;;12.25;10.25;;;;;18.50;43.79;101432.06;5078398;28;45377;-48
2022/03/16 06:31:34;;;;;;;;;13.75;9.25;;;;;18.51;43.97;101443.44;5078269;28;45332;-49
2022/03/16 06:34:00;;;;;;;;;12.50;11.25;;;;;18.50;43.96;101445.19;5077780;28;45365;-51
2022/03/16 06:36:26;;;;;;;;;8.25;7.25;;;;;18.50;43.93;101447.81;5077758;28;45717;-52
2022/03/16 06:38:52;;;;;;;;;14.50;9.75;;;;;18.48;43.73;101449.63;5077782;28;45193;-51
2022/03/16 06:41:18;;;;;;;;;10.75;7.75;;;;;18.49;43.78;101447.88;5078083;28;45227;-57
2022/03/16 06:43:43;;;;;;;;;12.25;11.00;;;;;18.48;43.74;101454.88;5077482;27;45991;-55
2022/03/16 06:46:08;;;;;;;;;13.25;12.25;;;;;18.48;44.10;101448.78;5077956;27;45386;-45
2022/03/16 06:48:34;;;;;;;;;10.50;9.50;;;;;18.47;43.96;101455.78;5077753;27;45312;-52
2022/03/16 06:50:59;;;;;;;;;11.00;11.00;;;;;18.46;44.00;101464.59;5077851;28;45444;-56
2022/03/16 06:53:25;;;;;;;;;8.25;8.25;;;;;18.45;44.04;101476.00;5077553;28;45963;-55
2022/03/16 06:55:50;;;;;;;;;12.00;8.50;;;;;18.44;43.98;101468.16;5076360;28;45253;-44
2022/03/16 06:58:16;;;;;;;;;9.50;8.50;;;;;18.43;43.74;101477.81;5076585;27;45971;-56
2022/03/16 07:00:42;;;;;;;;;8.00;8.00;;;;;18.41;44.17;101471.78;5077915;28;45338;-46
2022/03/16 07:03:07;;;;;;;;;10.75;10.50;;;;;18.41;44.05;101474.41;5077749;28;46155;-48
2022/03/16 07:05:38;;;;;;;;;12.75;10.25;;;;;18.43;43.97;101467.34;5077361;28;45343;-54
2022/03/16 07:08:06;;;;;;;;;8.75;8.75;;;;;18.41;44.01;101468.31;5076095;28;45324;-51
2022/03/16 07:10:33;;;;;;;;;10.50;10.50;;;;;18.40;44.01;101470.06;5077509;28;45529;-51
2022/03/16 07:12:58;;;;;;;;;10.75;10.50;;;;;18.37;44.25;101468.41;5076563;28;45527;-48
2022/03/16 07:15:25;;;;;;;;;11.00;9.75;;;;;18.35;44.24;101461.50;5076935;27;45389;-47
2022/03/16 07:17:50;;;;;;;;;9.75;9.75;;;;;18.34;44.08;101463.25;5077296;28;45382;-48
2022/03/16 07:20:16;;;;;;;;;11.50;10.25;;;;;18.30;44.46;101464.28;5077106;27;45378;-50
2022/03/16 07:22:41;;;;;;;;;11.00;8.75;;;;;18.30;44.27;101460.81;5077317;27;46520;-49
2022/03/16 07:25:11;;;;;;;;;12.00;10.50;;;;;18.30;44.42;101466.06;5077321;27;45187;-46
2022/03/16 07:27:40;;;;;;;;;13.00;11.75;;;;;18.30;44.34;101472.16;5077281;28;45499;-49
2022/03/16 07:30:07;;;;;;;;;10.00;10.00;;;;;18.29;44.48;101467.84;5076158;27;45701;-49
2022/03/16 07:32:36;;;;;;;;;10.50;10.00;;;;;18.24;44.43;101467.97;5077023;28;46519;-53
2022/03/16 07:35:02;;;;;;;;;5.00;5.00;;;;;18.28;44.53;101470.50;5076941;28;45461;-45
2022/03/16 07:37:27;;;;;;;;;14.00;12.25;;;;;18.28;44.43;101467.88;5077249;28;45840;-49
2022/03/16 07:39:53;;;;;;;;;11.75;9.00;;;;;18.27;44.68;101472.28;5077345;28;45634;-47
2022/03/16 07:42:18;;;;;;;;;10.00;8.00;;;;;18.30;44.48;101471.31;5076605;28;51347;-48
2022/03/16 07:44:43;;;;;;;;;7.00;7.00;;;;;18.35;44.55;101469.38;5076945;28;45397;-52
2022/03/16 07:47:09;;;;;;;;;6.75;6.75;;;;;18.37;44.54;101463.16;5077214;28;45393;-50
2022/03/16 07:49:34;;;;;;;;;8.25;6.75;;;;;18.42;44.90;101467.38;5077070;28;45594;-49
2022/03/16 07:52:00;;;;;;;;;9.50;7.00;;;;;18.46;44.41;101468.97;5076575;27;46035;-49
2022/03/16 07:54:25;;;;;;;;;8.00;8.00;;;;;18.49;44.09;101474.97;5076585;28;45382;-48
2022/03/16 07:56:51;;;;;;;;;7.25;6.25;;;;;18.51;44.10;101460.03;5076687;28;45848;-47
2022/03/16 07:59:16;;;;;;;;;5.00;5.00;;;;;18.53;43.88;101463.44;5075606;28;45341;-50
2022/03/16 08:01:43;;;;;;;;;5.00;5.00;;;;;18.56;44.05;101465.09;5076715;28;45420;-50
2022/03/16 08:04:09;;;;;;;;;6.00;6.00;;;;;18.60;43.89;101474.59;5076430;28;45350;-49
2022/03/16 08:06:34;;;;;;;;;6.50;6.00;;;;;18.62;43.84;101469.28;5076707;28;45229;-49
2022/03/16 08:08:59;;;;;;;;;6.50;6.50;;;;;18.63;43.70;101473.63;5076878;28;45298;-48
2022/03/16 08:11:25;;;;;;;;;8.50;7.00;;;;;18.66;43.57;101468.25;5075146;28;46941;-46
2022/03/16 08:13:50;;;;;;;;;8.00;6.00;;;;;18.66;43.85;101458.59;5076232;28;45359;-49
2022/03/16 08:16:16;;;;;;;;;9.00;8.00;;;;;18.68;43.57;101455.94;5076426;28;45384;-46
2022/03/16 08:18:41;;;;;;;;;7.50;6.25;;;;;18.70;43.78;101461.94;5076928;28;45545;-50
2022/03/16 08:21:07;;;;;;;;;6.25;5.00;;;;;18.70;43.48;101449.69;5076249;28;45934;-47
2022/03/16 08:23:32;;;;;;;;;6.00;6.00;;;;;18.72;43.51;101454.03;5076376;28;45592;-53
2022/03/16 08:25:58;;;;;;;;;5.00;5.00;;;;;18.74;43.30;101444.34;5078008;27;45337;-51
2022/03/16 08:28:24;;;;;;;;;5.00;5.00;;;;;18.73;43.64;101453.13;5079798;27;45331;-51
2022/03/16 08:30:50;;;;;;;;;7.25;6.50;;;;;18.75;43.43;101452.16;5078490;28;45406;-48
2022/03/16 08:33:18;;;;;;;;;5.75;4.50;;;;;18.75;43.51;101454.78;5080112;27;45252;-51
2022/03/16 08:35:44;;;;;;;;;5.75;5.75;;;;;18.76;43.40;101448.63;5080280;27;45373;-46
2022/03/16 08:38:09;;;;;;;;;6.25;4.75;;;;;18.77;43.34;101452.06;5080000;27;45251;-47
2022/03/16 08:40:34;;;;;;;;;6.00;5.25;;;;;18.77;43.35;101454.69;5079606;27;46089;-47
2022/03/16 08:43:00;;;;;;;;;6.50;6.50;;;;;18.78;43.55;101452.03;5079577;27;45465;-53
2022/03/16 08:45:25;;;;;;;;;5.50;5.50;;;;;18.77;43.29;101455.56;5079711;28;45352;-46
2022/03/16 08:47:50;;;;;;;;;3.75;3.75;;;;;18.79;43.07;101468.63;5078513;27;45313;-49
2022/03/16 08:50:16;;;;;;;;;3.00;3.00;;;;;18.79;43.02;101469.50;5079959;28;45964;-53
2022/03/16 08:52:42;;;;;;;;;6.00;6.00;;;;;18.80;43.25;101475.59;5079963;27;45875;-54
2022/03/16 08:55:07;;;;;;;;;8.25;5.75;;;;;18.81;43.36;101487.81;5079694;27;45312;-55
2022/03/16 08:57:33;;;;;;;;;8.50;7.00;;;;;18.82;42.97;101479.88;5079775;28;45483;-55
2022/03/16 08:59:59;;;;;;;;;5.75;4.00;;;;;18.83;43.14;101489.47;5077967;28;47899;-57
2022/03/16 09:02:24;;;;;;;;;9.25;5.25;;;;;18.84;43.29;101485.09;5078233;27;45464;-53
2022/03/16 09:04:53;;;;;;;;;6.50;5.25;;;;;18.86;43.08;101496.38;5079537;27;45252;-54
2022/03/16 09:07:18;;;;;;;;;6.00;5.00;;;;;18.85;43.09;101492.91;5079569;27;45364;-52
2022/03/16 09:09:44;;;;;;;;;7.00;6.50;;;;;18.87;43.23;101492.00;5079558;27;46284;-53
2022/03/16 09:12:11;;;;;;;;;6.00;6.00;;;;;18.87;43.35;101490.22;5078011;27;45339;-54
2022/03/16 09:14:37;;;;;;;;;5.00;5.00;;;;;18.88;43.20;101483.19;5079352;27;45553;-53
2022/03/16 09:17:02;;;;;;;;;6.00;6.00;;;;;18.89;43.49;101484.91;5079402;27;45545;-55
2022/03/16 09:19:28;;;;;;;;;6.00;5.75;;;;;18.89;43.34;101482.28;5079126;27;45493;-51
2022/03/16 09:21:53;;;;;;;;;6.00;6.00;;;;;18.89;43.15;101483.13;5079278;27;45508;-54
2022/03/16 09:24:20;;;;;;;;;5.00;5.00;;;;;18.91;43.40;101488.31;5079197;28;45375;-50
2022/03/16 09:26:45;;;;;;;;;5.25;5.25;;;;;18.90;43.07;101482.22;5079719;28;45502;-56
2022/03/16 09:29:12;;;;;;;;;8.75;8.75;;;;;18.91;43.08;101480.44;5079041;27;46148;-47
2022/03/16 09:31:38;;;;;;;;;3.75;3.75;;;;;18.90;43.06;101482.22;5078950;27;45268;-46
2022/03/16 09:34:05;;;;;;;;;10.75;6.75;;;;;18.92;43.35;101484.78;5079186;28;45413;-48
2022/03/16 09:36:32;;;;;;;;;7.00;7.00;;;;;18.92;43.26;101490.03;5078708;28;45583;-46
2022/03/16 09:38:58;;;;;;;;;5.75;5.00;;;;;18.91;43.02;101488.31;5078681;28;46890;-52
2022/03/16 09:41:25;;;;;;;;;5.50;5.00;;;;;18.93;43.47;101491.75;5078859;27;45355;-53
2022/03/16 09:43:52;;;;;;;;;9.00;7.50;;;;;18.94;43.42;101489.13;5078874;28;45324;-45
2022/03/16 09:46:22;;;;;;;;;5.75;5.75;;;;;18.94;43.34;101482.97;5079367;28;45537;-45
2022/03/16 09:48:47;;;;;;;;;1.50;0.25;;;;;18.96;43.06;101481.16;5078845;27;47169;-46
2022/03/16 09:51:16;;;;;;;;;7.25;5.50;;;;;18.96;43.46;101483.78;5078644;27;45394;-46
2022/03/16 09:53:42;;;;;;;;;6.75;6.75;;;;;18.97;43.06;101482.88;5078837;28;45441;-48
2022/03/16 09:56:08;;;;;;;;;9.75;8.00;;;;;18.98;43.31;101484.59;5078745;28;45650;-47
2022/03/16 09:58:34;;;;;;;;;7.75;6.50;;;;;18.96;43.33;101471.50;5078576;27;47076;-48
2022/03/16 10:01:00;;;;;;;;;10.50;7.50;;;;;18.98;43.22;101467.03;5078375;27;45755;-46
2022/03/16 10:03:28;;;;;;;;;6.50;6.25;;;;;18.97;43.19;101461.88;5078614;28;45281;-48
2022/03/16 10:05:55;;;;;;;;;8.25;7.00;;;;;18.99;43.52;101466.13;5078694;28;45329;-44
2022/03/16 10:08:27;;;;;;;;;9.50;7.75;;;;;18.99;43.22;101468.75;5078403;28;47271;-48
2022/03/16 10:14:04;;;;;;;;;9.00;7.75;;;;;19.02;43.15;101466.94;5078391;28;45579;-46
2022/03/16 10:17:43;;;;;;;;;7.00;7.00;;;;;19.02;43.58;101467.78;5078253;28;45450;-45
2022/03/16 10:19:18;;;;;;;;;6.25;6.25;;;;;19.01;43.20;101463.47;5078302;27;45342;-42
2022/03/16 10:21:57;;;;;;;;;6.75;6.75;;;;;19.02;43.20;101462.53;5078198;28;45922;-45
2022/03/16 10:24:28;;;;;;;;;7.00;6.50;;;;;19.01;43.35;101463.47;5078390;27;45262;-48
2022/03/16 10:26:54;;;;;;;;;6.00;6.00;;;;;19.02;43.60;101456.44;5078352;28;45400;-48
2022/03/16 10:29:22;;;;;;;;;10.75;7.75;;;;;19.04;42.80;101463.31;5078244;28;46286;-43
2022/03/16 10:32:03;;;;;;;;;8.00;7.00;;;;;19.05;43.18;101466.81;5078311;27;45236;-42
2022/03/16 10:34:29;;;;;;;;;8.50;8.50;;;;;19.04;43.39;101467.75;5078193;27;45373;-46
2022/03/16 10:36:54;;;;;;;;;10.25;9.25;;;;;19.04;43.21;101468.56;5078184;28;45558;-44
2022/03/16 10:39:35;;;;;;;;;9.50;8.00;;;;;19.04;43.08;101460.69;5078162;28;46275;-52
2022/03/16 10:48:21;;;;;;;;;9.25;8.00;;;;;19.03;43.28;101456.34;5077021;28;45320;-45
2022/03/16 10:50:48;;;;;;;;;6.50;6.50;;;;;19.04;43.17;101444.94;5077643;27;46742;-46
2022/03/16 10:53:16;;;;;;;;;9.00;7.50;;;;;19.05;43.14;101448.44;5077659;28;45433;-49
2022/03/16 10:55:43;;;;;;;;;7.00;7.00;;;;;19.04;43.15;101447.56;5077817;27;45369;-52
2022/03/16 10:58:10;;;;;;;;;9.00;7.00;;;;;19.07;43.17;101439.56;5077835;27;45251;-47
2022/03/16 11:00:37;;;;;;;;;9.00;8.75;;;;;19.09;43.52;101429.00;5077583;28;45333;-50
2022/03/16 11:03:09;;;;;;;;;8.00;7.50;;;;;19.10;43.50;101426.31;5077559;28;45369;-52
2022/03/16 11:05:36;;;;;;;;;8.50;7.00;;;;;19.12;43.30;101419.22;5077701;27;45404;-50
2022/03/16 11:08:06;;;;;;;;;10.75;10.75;;;;;19.12;43.34;101413.09;5077767;27;45429;-54
2022/03/16 11:10:36;;;;;;;;;9.00;9.00;;;;;19.13;43.50;101405.16;5077111;28;45651;-52
2022/03/16 11:15:50;;;;;;;;;10.75;8.50;;;;;19.16;43.29;101412.91;5077497;27;45365;-46
2022/03/16 11:18:20;;;;;;;;;9.00;9.00;;;;;19.20;43.53;101415.44;5077640;28;45410;-51
2022/03/16 11:20:51;;;;;;;;;8.00;8.00;;;;;19.19;43.58;101409.31;5077136;27;45504;-47
2022/03/16 11:26:25;;;;;;;;;5.75;5.25;;;;;19.22;43.28;101408.34;5077370;28;45326;-49
2022/03/16 11:29:02;;;;;;;;;10.25;8.00;;;;;19.22;43.37;101403.94;5077524;28;45514;-51
2022/03/16 11:31:34;;;;;;;;;12.75;10.25;;;;;19.25;43.55;101411.69;5076980;28;45751;-48